VIE weather

Vienna International Airport
Vienna, Vienna, Austria

Public forecast

Using degrees Celsius for public forecast. Weather courtesy of forecast.io.

Current aviation weather report (METAR) for Vienna International Airport

Retrieved 2020/04/01 11:20 UTC (8 minutes ago):

LOWW 011120Z VRB03KT 9999 FEW050 06/M08 Q1022 NOSIG

Aviation forecast (TAF) for Vienna International Airport

Retrieved 2020/04/01 09:21 UTC (2 hours ago):

TAF LOWW 010815Z 0109/0215 VRB05KT CAVOK TX12/0215Z TNM06/0204Z TEMPO 0213/0215 16010KT